createdAt,value
2023-03-21T00:00:41.375Z,101646.28
2023-03-21T00:03:08.899Z,101634.97
2023-03-21T00:05:42.831Z,101638.47
2023-03-21T00:08:09.750Z,101643.91
2023-03-21T00:10:42.305Z,101625.41
2023-03-21T00:13:22.822Z,101639.56
2023-03-21T00:16:05.780Z,101611.47
2023-03-21T00:18:42.022Z,101621.16
2023-03-21T00:23:58.918Z,101612.31
2023-03-21T00:26:25.924Z,101617.81
2023-03-21T00:28:52.835Z,101614.38
2023-03-21T00:31:19.377Z,101612.66
2023-03-21T00:33:45.926Z,101609.19
2023-03-21T00:36:13.175Z,101610.13
2023-03-21T00:38:40.344Z,101613.59
2023-03-21T00:41:19.264Z,101604.00
2023-03-21T00:43:50.149Z,101610.16
2023-03-21T00:46:16.772Z,101608.38
2023-03-21T00:48:43.313Z,101603.91
2023-03-21T00:51:26.606Z,101601.22
2023-03-21T00:53:58.313Z,101595.00
2023-03-21T00:56:25.007Z,101588.88
2023-03-21T00:58:51.546Z,101601.19
2023-03-21T01:01:18.648Z,101579.19
2023-03-21T01:03:48.187Z,101581.75
2023-03-21T01:06:19.440Z,101588.81
2023-03-21T01:08:54.828Z,101587.91
2023-03-21T01:11:28.398Z,101583.38
2023-03-21T01:14:07.109Z,101566.63
2023-03-21T01:16:34.738Z,101559.63
2023-03-21T01:19:04.926Z,101575.38
2023-03-21T01:21:32.107Z,101567.47
2023-03-21T01:23:59.198Z,101548.91
2023-03-21T01:26:25.807Z,101545.34
2023-03-21T01:28:52.331Z,101547.13
2023-03-21T01:31:19.354Z,101553.31
2023-03-21T01:33:45.907Z,101553.31
2023-03-21T01:36:20.392Z,101543.69
2023-03-21T01:38:48.803Z,101543.72
2023-03-21T01:41:43.520Z,101540.19
2023-03-21T01:44:16.913Z,101559.66
2023-03-21T01:46:57.437Z,101555.31
2023-03-21T01:49:36.163Z,101545.72
2023-03-21T01:52:15.280Z,101543.16
2023-03-21T01:54:47.616Z,101550.22
2023-03-21T01:57:18.181Z,101549.47
2023-03-21T01:59:50.451Z,101544.25
2023-03-21T02:02:20.894Z,101547.81
2023-03-21T02:04:51.086Z,101539.13
2023-03-21T02:07:19.497Z,101543.53
2023-03-21T02:09:49.012Z,101542.75
2023-03-21T02:12:16.373Z,101540.19
2023-03-21T02:14:43.271Z,101524.41
2023-03-21T02:17:29.985Z,101521.81
2023-03-21T02:20:12.003Z,101518.28
2023-03-21T02:23:02.845Z,101513.00
2023-03-21T02:25:56.009Z,101509.50
2023-03-21T02:28:35.280Z,101508.41
2023-03-21T02:31:39.370Z,101505.81
2023-03-21T02:34:35.867Z,101492.66
2023-03-21T02:37:11.302Z,101497.81
2023-03-21T02:40:13.582Z,101497.81
2023-03-21T02:42:44.979Z,101493.44
2023-03-21T02:45:25.811Z,101496.94
2023-03-21T02:48:33.164Z,101489.81
2023-03-21T02:51:05.993Z,101489.66
2023-03-21T02:53:35.181Z,101477.38
2023-03-21T02:56:02.207Z,101485.25
2023-03-21T02:58:29.208Z,101477.28
2023-03-21T03:00:56.239Z,101478.91
2023-03-21T03:03:33.527Z,101484.31
2023-03-21T03:06:03.496Z,101477.13
2023-03-21T03:09:02.299Z,101479.03
2023-03-21T03:11:31.977Z,101476.44
2023-03-21T03:14:44.148Z,101479.06
2023-03-21T03:17:47.122Z,101482.66
2023-03-21T03:20:47.232Z,101478.34
2023-03-21T03:23:22.558Z,101470.44
2023-03-21T03:25:53.206Z,101466.69
2023-03-21T03:28:26.599Z,101469.47
2023-03-21T03:31:08.119Z,101468.53
2023-03-21T03:33:38.105Z,101470.31
2023-03-21T03:36:07.063Z,101463.13
2023-03-21T03:38:35.351Z,101471.03
2023-03-21T03:41:09.075Z,101457.84
2023-03-21T03:43:41.873Z,101463.06
2023-03-21T03:46:26.664Z,101456.09
2023-03-21T03:48:58.601Z,101457.84
2023-03-21T03:51:51.079Z,101448.28
2023-03-21T03:54:29.880Z,101446.63
2023-03-21T03:56:56.921Z,101444.91
2023-03-21T03:59:24.439Z,101449.31
2023-03-21T04:01:51.542Z,101446.63
2023-03-21T04:04:18.226Z,101445.69
2023-03-21T04:06:51.521Z,101438.59
2023-03-21T04:09:22.217Z,101435.03
2023-03-21T04:11:51.611Z,101439.28
2023-03-21T04:14:18.226Z,101430.44
2023-03-21T04:16:44.777Z,101431.13
2023-03-21T04:19:11.308Z,101428.47
2023-03-21T04:21:38.042Z,101417.88
2023-03-21T04:24:05.590Z,101430.25
2023-03-21T04:26:33.723Z,101426.66
2023-03-21T04:29:00.856Z,101425.88
2023-03-21T04:31:28.603Z,101418.78
2023-03-21T04:33:55.941Z,101423.22
2023-03-21T04:36:27.759Z,101417.84
2023-03-21T04:38:57.183Z,101415.19
2023-03-21T04:41:23.916Z,101413.38
2023-03-21T04:43:52.320Z,101409.78
2023-03-21T04:46:19.068Z,101405.44
2023-03-21T04:48:45.567Z,101401.84
2023-03-21T04:51:12.217Z,101405.44
2023-03-21T04:53:39.491Z,101391.41
2023-03-21T04:56:06.747Z,101394.69
2023-03-21T04:58:33.393Z,101400.16
2023-03-21T05:01:02.501Z,101399.19
2023-03-21T05:03:34.629Z,101394.78
2023-03-21T05:06:01.563Z,101389.69
2023-03-21T05:08:28.115Z,101386.13
2023-03-21T05:10:54.626Z,101398.56
2023-03-21T05:13:21.121Z,101391.66
2023-03-21T05:15:47.634Z,101397.78
2023-03-21T05:18:14.145Z,101397.78
2023-03-21T05:20:44.485Z,101405.69
2023-03-21T05:23:11.828Z,101390.69
2023-03-21T05:25:40.104Z,101391.44
2023-03-21T05:28:07.005Z,101394.97
2023-03-21T05:30:33.918Z,101397.69
2023-03-21T05:33:00.846Z,101395.72
2023-03-21T05:35:27.443Z,101396.59
2023-03-21T05:37:54.086Z,101399.22
2023-03-21T05:40:21.403Z,101393.88
2023-03-21T05:42:48.354Z,101397.56
2023-03-21T05:45:16.020Z,101392.34
2023-03-21T05:47:42.617Z,101401.19
2023-03-21T05:50:11.195Z,101400.38
2023-03-21T05:52:37.733Z,101397.69
2023-03-21T05:55:05.301Z,101396.84
2023-03-21T05:57:35.023Z,101393.13
2023-03-21T06:00:02.037Z,101395.72
2023-03-21T06:02:28.618Z,101400.09
2023-03-21T06:04:55.253Z,101400.09
2023-03-21T06:07:22.198Z,101395.56
2023-03-21T06:09:48.720Z,101398.16
2023-03-21T06:12:15.681Z,101394.78
2023-03-21T06:14:42.332Z,101393.03
2023-03-21T06:17:08.926Z,101401.00
2023-03-21T06:19:35.961Z,101399.22
2023-03-21T06:22:02.544Z,101401.09
2023-03-21T06:24:29.034Z,101390.75
2023-03-21T06:26:56.110Z,101401.38
2023-03-21T06:29:22.704Z,101401.63
2023-03-21T06:31:49.301Z,101400.03
2023-03-21T06:34:15.827Z,101396.69
2023-03-21T06:36:44.710Z,101390.72
2023-03-21T06:39:11.329Z,101389.88
2023-03-21T06:41:38.041Z,101390.88
2023-03-21T06:44:04.954Z,101387.47
2023-03-21T06:46:31.554Z,101382.16
2023-03-21T06:48:58.156Z,101375.94
2023-03-21T06:51:24.811Z,101368.09
2023-03-21T06:53:51.487Z,101365.44
2023-03-21T06:56:18.044Z,101360.13
2023-03-21T06:58:44.617Z,101355.72
2023-03-21T07:01:11.244Z,101362.66
2023-03-21T07:03:41.053Z,101349.47
2023-03-21T07:06:11.908Z,101345.91
2023-03-21T07:08:39.481Z,101348.50
2023-03-21T07:11:06.483Z,101350.28
2023-03-21T07:13:33.473Z,101347.53
2023-03-21T07:16:00.650Z,101345.69
2023-03-21T07:18:27.891Z,101351.81
2023-03-21T07:20:54.430Z,101357.78
2023-03-21T07:23:23.088Z,101362.06
2023-03-21T07:25:50.668Z,101359.41
2023-03-21T07:28:17.940Z,101364.78
2023-03-21T07:30:45.297Z,101357.63
2023-03-21T07:33:12.345Z,101361.22
2023-03-21T07:35:39.421Z,101355.72
2023-03-21T07:38:06.422Z,101343.44
2023-03-21T07:40:33.618Z,101339.84
2023-03-21T07:43:00.260Z,101344.06
2023-03-21T07:45:27.366Z,101343.94
2023-03-21T07:47:54.374Z,101340.22
2023-03-21T07:50:21.418Z,101339.88
2023-03-21T07:52:48.504Z,101340.44
2023-03-21T07:55:17.276Z,101335.00
2023-03-21T07:57:44.360Z,101333.78
2023-03-21T08:00:12.675Z,101327.31
2023-03-21T08:02:39.426Z,101330.78
2023-03-21T08:05:06.157Z,101346.41
2023-03-21T08:07:32.876Z,101326.78
2023-03-21T08:09:59.885Z,101324.16
2023-03-21T08:12:26.435Z,101317.72
2023-03-21T08:14:53.039Z,101319.16
2023-03-21T08:17:19.622Z,101322.00
2023-03-21T08:19:46.432Z,101321.69
2023-03-21T08:22:12.946Z,101315.09
2023-03-21T08:24:39.506Z,101316.59
2023-03-21T08:27:05.997Z,101312.34
2023-03-21T08:29:32.496Z,101301.28
2023-03-21T08:31:59.048Z,101322.41
2023-03-21T08:34:26.689Z,101298.00
2023-03-21T08:36:53.255Z,101280.59
2023-03-21T08:39:21.828Z,101300.75
2023-03-21T08:41:48.503Z,101300.56
2023-03-21T08:44:16.910Z,101288.13
2023-03-21T08:46:43.412Z,101291.03
2023-03-21T08:49:10.010Z,101290.56
2023-03-21T08:51:38.244Z,101296.78
2023-03-21T08:54:04.763Z,101280.66
2023-03-21T08:56:31.549Z,101283.81
2023-03-21T08:58:58.975Z,101277.19
2023-03-21T09:01:26.217Z,101280.72
2023-03-21T09:03:52.868Z,101271.66
2023-03-21T09:06:19.410Z,101271.63
2023-03-21T09:08:46.439Z,101273.16
2023-03-21T09:11:13.151Z,101248.75
2023-03-21T09:13:39.757Z,101264.91
2023-03-21T09:16:06.650Z,101256.69
2023-03-21T09:18:47.083Z,101258.81
2023-03-21T09:21:15.591Z,101273.25
2023-03-21T09:23:42.358Z,101261.78
2023-03-21T09:26:09.777Z,101260.88
2023-03-21T09:28:38.978Z,101257.03
2023-03-21T09:31:06.598Z,101227.84
2023-03-21T09:33:35.248Z,101248.63
2023-03-21T09:36:02.215Z,101248.50
2023-03-21T09:38:30.549Z,101254.72
2023-03-21T09:40:59.887Z,101249.63
2023-03-21T09:43:42.571Z,101248.69
2023-03-21T09:46:15.508Z,101248.28
2023-03-21T09:48:57.288Z,101287.28
2023-03-21T09:51:27.152Z,101282.22
2023-03-21T09:53:57.207Z,101264.91
2023-03-21T09:56:26.030Z,101256.84
2023-03-21T09:58:54.924Z,101253.28
2023-03-21T10:01:41.683Z,101249.81
2023-03-21T10:04:11.891Z,101262.97
2023-03-21T10:06:41.362Z,101254.25
2023-03-21T10:09:15.504Z,101260.53
2023-03-21T10:11:49.669Z,101278.69
2023-03-21T10:14:21.635Z,101274.66
2023-03-21T10:16:50.411Z,101307.63
2023-03-21T10:19:19.588Z,101289.00
2023-03-21T10:22:00.325Z,101293.41
2023-03-21T10:24:29.185Z,101283.78
2023-03-21T10:26:56.052Z,101289.41
2023-03-21T10:29:27.912Z,101293.38
2023-03-21T10:31:55.043Z,101295.41
2023-03-21T10:34:35.284Z,101291.06
2023-03-21T10:37:03.527Z,101287.94
2023-03-21T10:39:46.558Z,101287.41
2023-03-21T10:42:19.270Z,101282.22
2023-03-21T10:44:49.213Z,101263.88
2023-03-21T10:47:23.442Z,101261.88
2023-03-21T10:50:06.954Z,101254.47
2023-03-21T10:52:35.683Z,101240.31
2023-03-21T10:55:08.517Z,101228.44
2023-03-21T10:57:38.033Z,101231.25
2023-03-21T11:00:17.112Z,101232.91
2023-03-21T11:02:48.504Z,101236.47
2023-03-21T11:05:46.814Z,101243.03
2023-03-21T11:08:15.953Z,101236.38
2023-03-21T11:10:51.617Z,101243.09
2023-03-21T11:13:24.898Z,101245.41
2023-03-21T11:15:58.986Z,101244.06
2023-03-21T11:18:27.735Z,101257.78
2023-03-21T11:20:56.838Z,101255.78
2023-03-21T11:23:29.108Z,101251.59
2023-03-21T11:25:58.320Z,101268.84
2023-03-21T11:28:28.621Z,101258.81
2023-03-21T11:30:57.992Z,101268.69
2023-03-21T11:33:33.214Z,101269.41
2023-03-21T11:36:02.547Z,101255.44
2023-03-21T11:38:37.763Z,101257.53
2023-03-21T11:41:05.034Z,101252.72
2023-03-21T11:43:38.416Z,101251.97
2023-03-21T11:46:06.518Z,101233.97
2023-03-21T11:48:45.073Z,101232.69
2023-03-21T11:51:30.505Z,101229.28
2023-03-21T11:54:16.933Z,101236.34
2023-03-21T11:56:52.096Z,101230.25
2023-03-21T11:59:59.424Z,101235.94
2023-03-21T12:02:31.900Z,101231.41
2023-03-21T12:05:01.239Z,101225.38
2023-03-21T12:07:49.504Z,101214.19
2023-03-21T12:10:43.682Z,101220.34
2023-03-21T12:13:26.717Z,101223.81
2023-03-21T12:16:02.100Z,101219.94
2023-03-21T12:18:56.978Z,101204.31
2023-03-21T12:21:30.157Z,101212.00
2023-03-21T12:23:56.638Z,101211.78
2023-03-21T12:26:31.533Z,101204.31
2023-03-21T12:29:10.272Z,101205.06
2023-03-21T12:31:42.541Z,101187.16
2023-03-21T12:34:19.885Z,101196.69
2023-03-21T12:37:07.068Z,101191.47
2023-03-21T12:39:39.331Z,101183.56
2023-03-21T12:42:24.119Z,101186.94
2023-03-21T12:44:55.963Z,101190.25
2023-03-21T12:47:27.319Z,101193.22
2023-03-21T12:50:01.671Z,101187.16
2023-03-21T12:52:40.542Z,101186.72
2023-03-21T12:55:13.965Z,101176.94
2023-03-21T12:58:18.392Z,101179.56
2023-03-21T13:01:11.461Z,101157.25
2023-03-21T13:03:45.585Z,101165.38
2023-03-21T13:06:18.328Z,101171.81
2023-03-21T13:08:50.270Z,101169.47
2023-03-21T13:11:20.566Z,101160.94
2023-03-21T13:13:53.078Z,101152.00
2023-03-21T13:16:45.079Z,101165.88
2023-03-21T13:19:20.756Z,101155.25
2023-03-21T13:22:05.971Z,101156.41
2023-03-21T13:24:32.448Z,101151.47
2023-03-21T13:27:07.055Z,101164.44
2023-03-21T13:30:07.432Z,101156.41
2023-03-21T13:32:43.168Z,101149.34
2023-03-21T13:35:28.908Z,101141.53
2023-03-21T13:38:03.694Z,101144.19
2023-03-21T13:40:43.948Z,101143.16
2023-03-21T13:43:35.507Z,101130.59
2023-03-21T13:46:10.936Z,101181.88
2023-03-21T13:48:58.463Z,101160.44
2023-03-21T13:51:28.578Z,101136.81
2023-03-21T13:54:17.676Z,101126.16
2023-03-21T13:56:47.169Z,101134.88
2023-03-21T13:59:17.401Z,101135.66
2023-03-21T14:02:19.472Z,101108.16
2023-03-21T14:05:04.243Z,101129.44
2023-03-21T14:07:34.998Z,101123.88
2023-03-21T14:10:09.316Z,101127.38
2023-03-21T14:12:41.223Z,101126.13
2023-03-21T14:15:40.950Z,101124.16
2023-03-21T14:18:28.122Z,101123.25
2023-03-21T14:21:09.201Z,101136.09
2023-03-21T14:23:38.618Z,101137.22
2023-03-21T14:26:06.336Z,101129.94
2023-03-21T14:28:33.617Z,101130.16
2023-03-21T14:31:01.317Z,101122.38
2023-03-21T14:33:41.625Z,101130.31
2023-03-21T14:36:15.511Z,101134.97
2023-03-21T14:38:42.384Z,101128.06
2023-03-21T14:41:26.624Z,101121.72
2023-03-21T14:44:17.293Z,101130.16
2023-03-21T14:46:45.086Z,101116.72
2023-03-21T14:49:24.554Z,101115.41
2023-03-21T14:51:53.241Z,101089.34
2023-03-21T14:54:19.856Z,101104.88
2023-03-21T14:57:02.780Z,101112.97
2023-03-21T14:59:36.265Z,101109.19
2023-03-21T15:02:31.096Z,101118.50
2023-03-21T15:04:59.178Z,101117.00
2023-03-21T15:07:34.448Z,101107.16
2023-03-21T15:10:05.400Z,101107.78
2023-03-21T15:12:32.959Z,101108.03
2023-03-21T15:15:01.368Z,101103.28
2023-03-21T15:17:28.417Z,101088.66
2023-03-21T15:19:54.975Z,101086.47
2023-03-21T15:22:33.679Z,101096.34
2023-03-21T15:25:04.845Z,101095.25
2023-03-21T15:27:34.400Z,101089.53
2023-03-21T15:30:01.109Z,101092.28
2023-03-21T15:32:28.805Z,101096.44
2023-03-21T15:35:03.478Z,101097.97
2023-03-21T15:37:33.262Z,101089.22
2023-03-21T15:40:09.729Z,101100.91
2023-03-21T15:42:40.940Z,101098.97
2023-03-21T15:45:23.394Z,101090.78
2023-03-21T15:47:50.084Z,101096.06
2023-03-21T15:50:22.617Z,101097.28
2023-03-21T15:52:50.345Z,101113.75
2023-03-21T15:55:39.145Z,101112.00
2023-03-21T15:58:16.286Z,101128.56
2023-03-21T16:00:49.883Z,101119.91
2023-03-21T16:03:23.254Z,101116.53
2023-03-21T16:06:11.422Z,101116.47
2023-03-21T16:08:52.408Z,101116.66
2023-03-21T16:11:31.845Z,101120.38
2023-03-21T16:13:58.408Z,101113.84
2023-03-21T16:16:27.715Z,101111.63
2023-03-21T16:18:55.502Z,101119.19
2023-03-21T16:21:24.600Z,101109.94
2023-03-21T16:23:51.267Z,101095.84
2023-03-21T16:26:21.661Z,101100.41
2023-03-21T16:28:48.855Z,101104.63
2023-03-21T16:31:26.333Z,101099.13
2023-03-21T16:33:53.125Z,101098.97
2023-03-21T16:36:23.379Z,101099.84
2023-03-21T16:38:52.670Z,101103.78
2023-03-21T16:41:19.924Z,101094.84
2023-03-21T16:43:46.916Z,101099.41
2023-03-21T16:46:16.552Z,101104.94
2023-03-21T16:48:44.626Z,101102.94
2023-03-21T16:51:18.950Z,101102.81
2023-03-21T16:53:46.020Z,101097.59
2023-03-21T16:56:21.904Z,101103.66
2023-03-21T16:58:48.749Z,101115.84
2023-03-21T17:01:20.666Z,101097.88
2023-03-21T17:03:48.560Z,101087.53
2023-03-21T17:06:17.566Z,101084.25
2023-03-21T17:08:44.498Z,101092.72
2023-03-21T17:11:13.015Z,101106.38
2023-03-21T17:13:39.670Z,101093.94
2023-03-21T17:16:27.035Z,101094.94
2023-03-21T17:18:54.563Z,101085.91
2023-03-21T17:21:26.557Z,101091.56
2023-03-21T17:23:53.635Z,101090.94
2023-03-21T17:26:26.440Z,101080.53
2023-03-21T17:28:55.390Z,101101.41
2023-03-21T17:31:24.095Z,101093.63
2023-03-21T17:33:50.935Z,101107.00
2023-03-21T17:36:24.276Z,101093.53
2023-03-21T17:38:52.861Z,101105.84
2023-03-21T17:41:20.277Z,101104.25
2023-03-21T17:43:47.319Z,101096.47
2023-03-21T17:46:18.921Z,101107.22
2023-03-21T17:48:46.251Z,101102.25
2023-03-21T17:51:16.520Z,101097.22
2023-03-21T17:53:50.789Z,101097.50
2023-03-21T17:56:26.169Z,101096.78
2023-03-21T17:58:53.929Z,101104.03
2023-03-21T18:01:20.898Z,101093.38
2023-03-21T18:03:47.522Z,101085.59
2023-03-21T18:06:16.466Z,101089.16
2023-03-21T18:08:44.805Z,101090.03
2023-03-21T18:11:12.817Z,101084.75
2023-03-21T18:13:40.352Z,101096.31
2023-03-21T18:16:08.467Z,101078.03
2023-03-21T18:18:35.188Z,101071.16
2023-03-21T18:21:02.100Z,101082.16
2023-03-21T18:23:28.956Z,101072.63
2023-03-21T18:25:55.578Z,101087.38
2023-03-21T18:28:22.597Z,101081.53
2023-03-21T18:31:07.704Z,101079.91
2023-03-21T18:33:37.379Z,101085.28
2023-03-21T18:36:07.471Z,101083.34
2023-03-21T18:38:35.514Z,101077.16
2023-03-21T18:41:02.189Z,101073.88
2023-03-21T18:46:16.399Z,101085.41
2023-03-21T18:48:43.073Z,101080.13
2023-03-21T18:51:10.182Z,101100.38
2023-03-21T18:53:36.688Z,101094.19
2023-03-21T18:56:03.312Z,101087.28
2023-03-21T18:58:29.875Z,101096.13
2023-03-21T19:00:59.459Z,101090.91
2023-03-21T19:03:35.722Z,101100.63
2023-03-21T19:06:04.833Z,101091.78
2023-03-21T19:08:32.196Z,101095.53
2023-03-21T19:11:03.333Z,101094.72
2023-03-21T19:13:33.044Z,101092.09
2023-03-21T19:16:02.414Z,101088.59
2023-03-21T19:18:50.208Z,101094.91
2023-03-21T19:21:19.868Z,101086.25
2023-03-21T19:26:33.328Z,101080.59
2023-03-21T19:28:59.916Z,101081.59
2023-03-21T19:31:27.243Z,101076.31
2023-03-21T19:33:53.888Z,101072.66
2023-03-21T19:36:22.772Z,101065.00
2023-03-21T19:38:50.543Z,101062.53
2023-03-21T19:41:17.992Z,101058.94
2023-03-21T19:43:54.063Z,101053.81
2023-03-21T19:46:24.649Z,101061.66
2023-03-21T19:48:51.605Z,101056.28
2023-03-21T19:51:28.178Z,101056.16
2023-03-21T19:53:56.130Z,101069.38
2023-03-21T19:56:26.532Z,101055.28
2023-03-21T19:58:53.895Z,101062.91
2023-03-21T20:01:20.669Z,101055.97
2023-03-21T20:03:47.436Z,101051.59
2023-03-21T20:06:14.134Z,101057.84
2023-03-21T20:09:13.564Z,101042.97
2023-03-21T20:11:27.887Z,101050.06
2023-03-21T20:13:54.481Z,101042.28
2023-03-21T20:16:21.412Z,101037.00
2023-03-21T20:18:47.981Z,101041.41
2023-03-21T20:21:18.021Z,101038.66
2023-03-21T20:23:49.296Z,101034.72
2023-03-21T20:26:16.874Z,101022.47
2023-03-21T20:28:56.021Z,101019.06
2023-03-21T20:31:30.623Z,101014.63
2023-03-21T20:33:57.320Z,101009.41
2023-03-21T20:36:38.821Z,101019.91
2023-03-21T20:39:06.862Z,101012.94
2023-03-21T20:41:33.459Z,101010.28
2023-03-21T20:46:49.415Z,101017.94
2023-03-21T20:49:16.231Z,101018.25
2023-03-21T20:54:30.129Z,101017.06
2023-03-21T20:56:57.274Z,101013.31
2023-03-21T20:59:27.678Z,101024.94
2023-03-21T21:01:57.161Z,101024.44
2023-03-21T21:04:44.276Z,101014.78
2023-03-21T21:07:15.882Z,101018.25
2023-03-21T21:09:43.991Z,101021.59
2023-03-21T21:12:11.038Z,101011.00
2023-03-21T21:14:38.232Z,101031.25
2023-03-21T21:17:23.924Z,101020.47
2023-03-21T21:19:52.281Z,101011.09
2023-03-21T21:22:19.200Z,101007.03
2023-03-21T21:24:45.749Z,101018.72
2023-03-21T21:27:12.326Z,101015.59
2023-03-21T21:29:38.877Z,101000.09
2023-03-21T21:32:05.491Z,101018.66
2023-03-21T21:34:32.277Z,100999.13
2023-03-21T21:36:59.212Z,101006.22
2023-03-21T21:39:26.577Z,101001.78
2023-03-21T21:41:53.690Z,100996.63
2023-03-21T21:44:20.335Z,100995.03
2023-03-21T21:46:47.118Z,101002.03
2023-03-21T21:49:13.928Z,101003.16
2023-03-21T21:51:41.888Z,101007.59
2023-03-21T21:54:08.458Z,100998.00
2023-03-21T21:56:37.524Z,100995.56
2023-03-21T21:59:05.440Z,100969.94
2023-03-21T22:01:34.715Z,100977.72
2023-03-21T22:04:06.416Z,100988.28
2023-03-21T22:06:33.920Z,100977.00
2023-03-21T22:09:01.024Z,100975.28
2023-03-21T22:11:27.774Z,100972.63
2023-03-21T22:13:54.279Z,100971.03
2023-03-21T22:16:21.071Z,100981.53
2023-03-21T22:18:47.683Z,100972.75
2023-03-21T22:21:14.240Z,100959.72
2023-03-21T22:23:43.401Z,100972.47
2023-03-21T22:26:10.605Z,100978.47
2023-03-21T22:28:40.092Z,100973.38
2023-03-21T22:31:12.899Z,100982.41
2023-03-21T22:33:39.579Z,100974.75
2023-03-21T22:36:06.459Z,100975.84
2023-03-21T22:38:34.639Z,100973.84
2023-03-21T22:41:02.337Z,100972.56
2023-03-21T22:43:29.190Z,100974.41
2023-03-21T22:45:56.005Z,100958.66
2023-03-21T22:48:23.089Z,100969.47
2023-03-21T22:50:49.709Z,100967.72
2023-03-21T22:53:16.301Z,100962.50
2023-03-21T22:55:42.882Z,100962.88
2023-03-21T22:58:09.442Z,100954.16
2023-03-21T23:00:35.937Z,100964.84
2023-03-21T23:03:02.450Z,100951.50
2023-03-21T23:05:29.119Z,100949.91
2023-03-21T23:07:55.645Z,100963.09
2023-03-21T23:10:22.277Z,100971.09
2023-03-21T23:12:49.297Z,100950.97
2023-03-21T23:15:15.876Z,100966.84
2023-03-21T23:17:44.199Z,100973.06
2023-03-21T23:20:10.963Z,100954.41
2023-03-21T23:22:37.917Z,100949.91
2023-03-21T23:25:05.299Z,100958.56
2023-03-21T23:27:31.862Z,100948.44
2023-03-21T23:29:58.680Z,100932.47
2023-03-21T23:32:25.314Z,100941.50
2023-03-21T23:34:51.908Z,100932.97
2023-03-21T23:37:18.515Z,100929.53
2023-03-21T23:39:45.358Z,100928.72
2023-03-21T23:42:11.919Z,100917.59
2023-03-21T23:44:38.522Z,100910.63
2023-03-21T23:47:06.416Z,100928.56
2023-03-21T23:49:37.548Z,100920.13
2023-03-21T23:52:04.161Z,100915.69
2023-03-21T23:54:30.930Z,100907.88
2023-03-21T23:56:57.412Z,100913.09
2023-03-21T23:59:23.976Z,100911.44
